Isle of North Uist, United Kingdom
Current Conditions -  °F | °C
As of 4:50 AM on Saturday 20 Dec 2014 (Local Time) from EGPL Reporting Station
Scattered Clouds Scattered Clouds  
Wind Chill: 35°   Ceiling: Unl
Heat Index: 45°   Visibility: 5mi
Dew Point: 39°   Wind: 31mph
Humidity: 81%   Direction: 300°WNW
Pressure: 29.88"   Gusts: 46mph
Location:  57.6°N, 7.16°W
Report Text: EGPL 200450Z AUTO 30027G40KT 8000 SCT041/// 07/04 Q1012
Loading
Personal Weather Stations






























Interactive Weather Map New forecast layout! Learn more

10-Day Weather Forecast

Advertisements
Track Severe Weather on mobile